Aeroporto :
LOGIN :

Iscrizione | Disclaimer

   EN    FR    IT 

 










Sommario :    VFR   VFR Marginale   IFR   IFR Intensivo   IFR Molto Intensivo
Visibilità : 
Base nubi : 
>= 8 km
>= 3000ft
5 / 8 km
1000 / 3000 ft
1500m / 5 km
500 / 1000 ft
800 / 1500m
200 / 500 ft
< 800m
< 200 ft
Simboli :   Temporali  Nebbia  Neve Forte  Precipitazioni Forti  Vento > 20 kt
SIGMETs :   Varie  Temporali  Ghiacco  Turbolenza  Onda orograficha  Ceneri Vulcaniche







- Altitudine del aeroporto : 82 ft
- Codice IATA : ALG


DAAG - Alger Houari Boumedienne

ULTIMO METAR :
  • 252200Z 10003KT 6000 FEW010 22/21 Q1014

METARs OBSOLETI :
  • 252130Z 09003KT 6000 SCT010 22/21 Q1015
  • 252100Z 08005KT 6000 SCT010 22/21 Q1015
  • 252030Z 08005KT 6000 SCT010 23/21 Q1015
  • 252000Z 06006KT 030V090 6000 SCT010 23/21 Q1015
  • 251930Z 07005KT 6000 SCT010 23/21 Q1015
  • 251900Z 07008KT 7000 FEW011 24/21 Q1014

TAF TAF DAAG
Valido dal 25 a 18 ore il 26 a 18 ore UTC


251700Z 2518/2618 04010KT 8000 FEW026
BECMG 2519/2523 VRB02KT
PROB30
TEMPO 2600/2609 5000 BR BKN010
BECMG 2609/2612 34010KT
Nessun NOTAM noto per questo aeroporto.



MetMap, La meteo Aeronautica in un colpo d'occhio ! - Copyright ORBIFLY Dicembre 2007 - Disclaimer

ORBIFLY MET'MAP TEAM :

Programmazione e sviluppo : Alexandra Zaïnal
Concezione e sviluppo : Baudouin d'Aumeries
Co-Programmazione e sviluppo : Marc-Olivier Méhu
Supporto tecnico e logistico : Manuel Goepfert
Aiuto per la traduzione : Arnaldo La Scala

Contatto : metmap@orbifly.com




FONTI E CREDITI :

   NOAA